Time;durP1;ratioP1;P1;durP2;ratioP2;P2;SDS_P1;SDS_P2;PMS_P1;PMS_P2;Temp;Humidity;BMP_temperature;BMP_pressure;BME280_temperature;BME280_humidity;BME280_pressure;Samples;Min_cycle;Max_cycle;Signal;HPM_P1;HPM_P2
2023/01/29 00:01:24;;;;;;;24.55;14.15;;;;;;;-1.43;85.91;103051.13;5002125;28;20026;-76
2023/01/29 00:03:50;;;;;;;24.30;14.18;;;;;;;-1.33;85.24;103063.88;4999196;28;20046;-76
2023/01/29 00:06:16;;;;;;;22.60;13.35;;;;;;;-1.37;85.18;103045.41;5003966;28;20436;-76
2023/01/29 00:08:42;;;;;;;30.25;13.32;;;;;;;-1.36;85.67;103049.78;4993112;28;20034;-76
2023/01/29 00:11:08;;;;;;;25.40;13.05;;;;;;;-1.36;85.38;103052.38;5012698;28;20079;-76
2023/01/29 00:13:39;;;;;;;21.08;13.38;;;;;;;-1.28;86.09;103060.69;5007254;28;20509;-76
2023/01/29 00:16:05;;;;;;;26.58;13.80;;;;;;;-1.33;85.79;103039.59;4997226;28;20057;-76
2023/01/29 00:18:30;;;;;;;29.45;15.80;;;;;;;-1.30;86.01;103038.06;5029545;28;20082;-76
2023/01/29 00:20:56;;;;;;;22.83;13.23;;;;;;;-1.26;86.15;103038.25;4996293;28;20477;-76
2023/01/29 00:23:22;;;;;;;21.92;13.57;;;;;;;-1.31;85.74;103025.91;4994773;28;20030;-76
2023/01/29 00:25:48;;;;;;;23.83;14.15;;;;;;;-1.28;85.99;103037.28;4999485;28;20384;-76
2023/01/29 00:28:14;;;;;;;23.02;15.10;;;;;;;-1.32;86.65;103025.78;4997527;28;20119;-76
2023/01/29 00:30:40;;;;;;;28.77;15.77;;;;;;;-1.25;86.49;103048.75;4998617;28;20057;-77
2023/01/29 00:33:05;;;;;;;26.05;14.75;;;;;;;-1.31;86.17;103030.19;4996418;28;20030;-78
2023/01/29 00:35:31;;;;;;;22.15;14.13;;;;;;;-1.36;85.98;103016.91;4998061;28;20058;-75
2023/01/29 00:37:57;;;;;;;28.95;16.33;;;;;;;-1.27;86.62;103028.69;5026108;28;20483;-75
2023/01/29 00:40:24;;;;;;;21.98;12.15;;;;;;;-1.32;85.91;103013.69;5031489;28;20026;-77
2023/01/29 00:45:38;;;;;;;22.65;12.48;;;;;;;-1.37;86.14;103003.81;5011817;28;20042;-77
2023/01/29 00:48:05;;;;;;;25.02;13.77;;;;;;;-1.39;86.43;103002.81;4999569;28;20030;-77
2023/01/29 00:50:31;;;;;;;23.02;13.65;;;;;;;-1.38;86.39;102997.72;5000011;28;20029;-77
2023/01/29 00:52:57;;;;;;;25.65;14.82;;;;;;;-1.34;86.35;103004.00;5000942;28;20034;-76
2023/01/29 00:55:22;;;;;;;26.63;14.73;;;;;;;-1.48;85.87;102984.03;4997745;28;20042;-76
2023/01/29 00:57:51;;;;;;;23.67;13.85;;;;;;;-1.44;86.75;102989.53;5011879;28;20033;-76
2023/01/29 01:00:17;;;;;;;25.30;14.50;;;;;;;-1.44;86.40;102983.44;5008804;28;20433;-76
2023/01/29 01:05:28;;;;;;;24.20;14.82;;;;;;;-1.50;87.20;102999.56;5000891;28;20034;-76
2023/01/29 01:07:57;;;;;;;22.73;14.43;;;;;;;-1.60;86.87;102995.50;5029793;28;20034;-76
2023/01/29 01:10:32;;;;;;;25.73;14.32;;;;;;;-1.48;87.18;103004.84;5005639;28;20065;-77
2023/01/29 01:13:03;;;;;;;24.52;14.73;;;;;;;-1.57;87.48;102993.09;5031359;28;20414;-77
2023/01/29 01:15:34;;;;;;;25.77;14.30;;;;;;;-1.57;87.30;103002.59;5027673;28;20045;-77
2023/01/29 01:18:01;;;;;;;24.98;14.73;;;;;;;-1.57;87.45;102995.69;5001692;28;20111;-76
2023/01/29 01:20:29;;;;;;;24.17;13.43;;;;;;;-1.57;87.08;102987.88;4992759;28;20034;-76
2023/01/29 01:22:55;;;;;;;24.20;14.18;;;;;;;-1.57;87.73;102995.69;5002948;28;20022;-76
2023/01/29 01:25:22;;;;;;;28.58;16.45;;;;;;;-1.57;88.00;102992.19;4999313;28;20053;-77
2023/01/29 01:27:57;;;;;;;24.23;13.52;;;;;;;-1.64;87.66;102977.91;5000846;28;20409;-76
2023/01/29 01:30:24;;;;;;;23.73;13.65;;;;;;;-1.49;87.82;103006.53;4997900;28;20366;-76
2023/01/29 01:32:49;;;;;;;26.55;14.43;;;;;;;-1.48;87.81;102997.03;4997713;28;20037;-76
2023/01/29 01:35:15;;;;;;;23.95;14.95;;;;;;;-1.46;87.90;102998.94;4996742;28;20058;-76
2023/01/29 01:37:41;;;;;;;26.83;13.30;;;;;;;-1.43;87.52;103006.94;5004438;28;20037;-77
2023/01/29 01:40:25;;;;;;;23.75;14.35;;;;;;;-1.46;87.66;102988.53;5034196;28;20480;-77
2023/01/29 01:42:54;;;;;;;25.15;14.52;;;;;;;-1.45;87.59;102985.16;5013545;28;20030;-77
2023/01/29 01:45:26;;;;;;;25.42;14.98;;;;;;;-1.35;87.52;102994.41;5027196;28;20386;-77
2023/01/29 01:47:58;;;;;;;24.48;12.50;;;;;;;-1.39;87.54;103006.31;5034916;28;20037;-77
2023/01/29 01:50:32;;;;;;;27.35;14.63;;;;;;;-1.42;87.85;102989.66;5000572;28;20053;-77
2023/01/29 01:53:03;;;;;;;23.42;13.98;;;;;;;-1.36;87.65;103003.91;4995484;28;20034;-76
2023/01/29 01:55:33;;;;;;;26.83;14.90;;;;;;;-1.39;87.47;102990.72;5018646;28;20058;-76
2023/01/29 01:58:32;;;;;;;23.05;14.50;;;;;;;-1.35;87.34;103003.09;5036046;28;20045;-76
2023/01/29 02:00:58;;;;;;;24.77;15.25;;;;;;;-1.42;87.38;102997.44;4993286;28;20396;-81
2023/01/29 02:11:49;;;;;;;26.05;14.48;;;;;;;-1.37;87.73;103006.41;4994583;28;20347;-81
2023/01/29 02:14:15;;;;;;;26.42;16.05;;;;;;;-1.36;87.83;103014.31;4991390;28;20033;-81
2023/01/29 02:16:40;;;;;;;24.02;14.38;;;;;;;-1.35;88.08;103017.81;5001007;28;20034;-81
2023/01/29 02:19:15;;;;;;;25.40;15.00;;;;;;;-1.38;88.24;103017.63;4997488;28;20373;-81
2023/01/29 02:21:59;;;;;;;29.65;16.23;;;;;;;-1.36;88.19;103029.00;4996026;28;20037;-81
2023/01/29 02:24:44;;;;;;;30.92;15.70;;;;;;;-1.33;88.09;103022.28;4996614;28;20076;-81
2023/01/29 02:27:43;;;;;;;22.77;13.73;;;;;;;-1.26;87.57;103020.06;5000763;28;20049;-82
2023/01/29 02:30:38;;;;;;;23.23;13.53;;;;;;;-1.26;87.29;103023.59;5008682;28;20088;-81
2023/01/29 02:33:31;;;;;;;26.20;13.70;;;;;;;-1.27;87.54;103011.38;5007534;28;20026;-82
2023/01/29 02:36:08;;;;;;;27.73;14.63;;;;;;;-1.24;87.38;103016.75;5009772;28;20093;-81
2023/01/29 02:39:00;;;;;;;25.35;14.13;;;;;;;-1.21;87.70;103019.56;5008376;28;20041;-77
2023/01/29 02:41:44;;;;;;;25.25;14.30;;;;;;;-1.27;88.13;103007.88;4992130;28;20109;-76
2023/01/29 02:44:40;;;;;;;25.42;15.65;;;;;;;-1.20;88.18;103023.06;5030237;28;20038;-77
2023/01/29 02:47:21;;;;;;;25.60;15.45;;;;;;;-1.22;88.42;103009.94;4999998;28;20052;-76
2023/01/29 02:49:59;;;;;;;29.20;16.55;;;;;;;-1.31;88.74;102994.69;4995986;28;20572;-76
2023/01/29 02:52:34;;;;;;;28.48;16.33;;;;;;;-1.31;88.23;102986.00;5019374;28;20089;-76
2023/01/29 02:55:08;;;;;;;25.85;15.63;;;;;;;-1.23;88.92;103000.38;5000258;28;20038;-76
2023/01/29 02:57:38;;;;;;;27.10;15.80;;;;;;;-1.33;88.70;102985.00;4998554;28;20026;-76
2023/01/29 03:00:06;;;;;;;26.50;13.00;;;;;;;-1.29;88.55;102979.19;5007631;28;20031;-76
2023/01/29 03:02:43;;;;;;;26.42;15.25;;;;;;;-1.17;88.82;103003.31;4992031;28;20030;-76
2023/01/29 03:05:14;;;;;;;25.98;15.68;;;;;;;-1.18;88.94;102998.94;4991075;28;20035;-75
2023/01/29 03:07:47;;;;;;;26.20;15.88;;;;;;;-1.24;88.52;102985.56;4993968;28;20130;-76
2023/01/29 03:10:30;;;;;;;27.65;15.00;;;;;;;-1.16;89.14;102997.34;5043711;28;20134;-76
2023/01/29 03:13:05;;;;;;;24.55;13.60;;;;;;;-1.22;88.64;102981.34;5030324;28;20381;-76
2023/01/29 03:15:45;;;;;;;27.63;16.63;;;;;;;-1.13;88.63;102999.22;5012203;28;20476;-76
2023/01/29 03:18:50;;;;;;;27.73;15.30;;;;;;;-1.23;88.57;102968.28;5008774;28;20042;-76
2023/01/29 03:33:25;;;;;;;27.20;16.00;;;;;;;-1.06;89.14;102984.88;5041597;28;20038;-76
2023/01/29 03:36:17;;;;;;;28.25;15.25;;;;;;;-1.08;88.70;102979.59;5016128;28;20070;-76
2023/01/29 03:38:44;;;;;;;31.10;16.20;;;;;;;-1.01;88.65;102988.66;5030996;28;20033;-76
2023/01/29 03:41:24;;;;;;;27.63;16.88;;;;;;;-1.01;88.68;102986.06;5014482;28;20060;-76
2023/01/29 03:44:00;;;;;;;25.15;15.07;;;;;;;-0.96;88.79;102984.63;5041734;28;20033;-76
2023/01/29 03:46:35;;;;;;;24.80;14.68;;;;;;;-0.97;88.91;102985.44;5013905;28;20025;-76
2023/01/29 03:49:07;;;;;;;28.35;15.77;;;;;;;-0.89;88.32;102974.69;5030407;28;20021;-76
2023/01/29 03:51:59;;;;;;;30.42;15.95;;;;;;;-0.87;88.85;102977.34;5030523;28;20041;-76
2023/01/29 03:54:59;;;;;;;31.65;16.92;;;;;;;-0.87;88.76;102980.88;4975868;28;20043;-77
2023/01/29 03:57:44;;;;;;;27.30;17.33;;;;;;;-1.06;88.66;102943.25;5018794;28;20041;-77
2023/01/29 04:00:21;;;;;;;27.75;17.08;;;;;;;-0.83;88.88;102968.03;5020611;28;20465;-76
2023/01/29 04:03:09;;;;;;;27.38;16.25;;;;;;;-0.84;88.80;102969.75;5029758;28;20103;-77
2023/01/29 04:05:43;;;;;;;30.80;17.50;;;;;;;-0.90;88.85;102957.25;5047199;28;20092;-77
2023/01/29 04:08:24;;;;;;;29.88;17.33;;;;;;;-0.87;88.68;102953.94;4999614;28;20026;-76
2023/01/29 04:10:53;;;;;;;29.13;16.23;;;;;;;-0.82;88.74;102954.22;5001402;28;20034;-77
2023/01/29 04:13:20;;;;;;;32.28;17.45;;;;;;;-0.87;88.94;102943.53;5012921;28;20033;-77
2023/01/29 04:15:52;;;;;;;31.42;17.48;;;;;;;-0.87;89.10;102949.66;5014570;28;20034;-77
2023/01/29 04:18:24;;;;;;;29.50;17.88;;;;;;;-0.91;89.07;102933.78;4998087;28;20121;-77
2023/01/29 04:21:07;;;;;;;29.77;17.60;;;;;;;-0.75;88.66;102951.16;5046416;28;20115;-77
2023/01/29 04:23:33;;;;;;;25.77;14.88;;;;;;;-0.75;88.46;102944.25;5013412;28;20472;-77
2023/01/29 04:26:29;;;;;;;34.50;19.88;;;;;;;-0.75;88.81;102957.25;5004774;28;20088;-77
2023/01/29 04:28:56;;;;;;;32.70;17.58;;;;;;;-0.79;88.65;102942.31;4997798;28;20485;-76
2023/01/29 04:31:28;;;;;;;29.08;17.35;;;;;;;-0.80;88.79;102945.69;5039867;28;20080;-77
2023/01/29 04:33:57;;;;;;;26.65;14.25;;;;;;;-0.71;88.98;102951.44;5029463;28;20397;-77
2023/01/29 04:36:54;;;;;;;28.83;16.27;;;;;;;-0.75;88.53;102935.56;5039142;28;20407;-77
2023/01/29 04:39:51;;;;;;;31.08;17.40;;;;;;;-0.69;89.16;102931.63;5014130;28;20033;-77
2023/01/29 04:42:48;;;;;;;28.40;16.85;;;;;;;-0.68;88.89;102928.19;5013630;28;20026;-77
2023/01/29 04:45:32;;;;;;;30.75;17.00;;;;;;;-0.65;89.41;102930.06;5009785;28;20385;-77
2023/01/29 04:48:15;;;;;;;35.53;18.65;;;;;;;-0.74;88.87;102903.53;5014104;28;20038;-76
2023/01/29 04:50:54;;;;;;;34.17;16.75;;;;;;;-0.79;89.18;102889.34;5012850;28;20038;-76
2023/01/29 04:53:34;;;;;;;33.30;20.20;;;;;;;-0.68;89.60;102909.97;5012896;28;20034;-76
2023/01/29 04:56:18;;;;;;;32.10;17.90;;;;;;;-0.71;89.69;102890.72;5000923;28;20053;-76
2023/01/29 04:58:54;;;;;;;30.90;18.33;;;;;;;-0.75;89.61;102880.94;5045927;28;20046;-77
2023/01/29 05:01:28;;;;;;;32.33;19.02;;;;;;;-0.69;89.41;102892.59;5013795;28;20417;-77
2023/01/29 05:03:56;;;;;;;35.28;19.60;;;;;;;-0.72;89.61;102884.63;5012451;28;20045;-77
2023/01/29 05:06:23;;;;;;;34.92;18.40;;;;;;;-0.61;89.99;102912.94;5007155;28;20164;-77
2023/01/29 05:08:50;;;;;;;35.28;20.20;;;;;;;-0.69;89.85;102899.50;5003955;28;20046;-77
2023/01/29 05:11:17;;;;;;;31.25;18.58;;;;;;;-0.74;89.80;102887.91;5013333;28;20054;-77
2023/01/29 05:13:43;;;;;;;33.85;18.67;;;;;;;-0.63;89.98;102898.94;5013579;28;20045;-77
2023/01/29 05:16:26;;;;;;;37.95;19.83;;;;;;;-0.56;89.70;102901.97;5013504;28;20041;-76
2023/01/29 05:18:52;;;;;;;34.08;20.17;;;;;;;-0.57;89.52;102889.78;5012279;28;20041;-77
2023/01/29 05:21:19;;;;;;;32.97;19.27;;;;;;;-0.52;89.35;102898.75;5013246;28;20021;-77
2023/01/29 05:23:58;;;;;;;37.08;20.75;;;;;;;-0.51;89.36;102882.31;5028661;28;20113;-77
2023/01/29 05:29:07;;;;;;;32.45;17.83;;;;;;;-0.51;89.59;102868.41;5002877;28;20092;-82
2023/01/29 05:31:33;;;;;;;36.85;20.52;;;;;;;-0.51;89.46;102869.31;5010189;28;20026;-82
2023/01/29 05:33:58;;;;;;;30.92;18.98;;;;;;;-0.51;89.92;102861.50;5011995;28;20053;-82
2023/01/29 05:36:25;;;;;;;34.55;20.48;;;;;;;-0.51;89.82;102864.09;5008719;28;20125;-82
2023/01/29 05:38:51;;;;;;;36.63;21.92;;;;;;;-0.51;89.72;102864.09;5035377;28;20117;-82
2023/01/29 05:41:16;;;;;;;38.90;22.48;;;;;;;-0.49;90.06;102870.28;4979477;28;20542;-82
2023/01/29 05:43:42;;;;;;;35.72;20.95;;;;;;;-0.49;89.76;102878.09;5012631;28;20038;-82
2023/01/29 05:46:07;;;;;;;34.88;21.02;;;;;;;-0.43;89.90;102882.75;5011624;28;20037;-82
2023/01/29 05:48:33;;;;;;;32.90;21.00;;;;;;;-0.41;89.83;102891.53;5045109;28;20072;-82
2023/01/29 05:51:03;;;;;;;34.45;20.13;;;;;;;-0.42;89.92;102892.38;5011708;28;20042;-82
2023/01/29 05:53:29;;;;;;;40.57;23.80;;;;;;;-0.40;89.58;102898.53;5012059;28;20034;-82
2023/01/29 05:55:56;;;;;;;37.95;22.13;;;;;;;-0.37;89.51;102898.72;5044592;28;20034;-82
2023/01/29 05:58:21;;;;;;;39.25;23.10;;;;;;;-0.33;89.59;102902.38;5012905;28;20041;-82
2023/01/29 06:00:47;;;;;;;34.60;20.80;;;;;;;-0.33;89.43;102898.06;5012717;28;20481;-82
2023/01/29 06:03:12;;;;;;;38.70;21.90;;;;;;;-0.32;89.62;102902.47;5011660;28;20036;-82
2023/01/29 06:05:39;;;;;;;35.97;22.35;;;;;;;-0.39;89.59;102883.81;5043995;28;20041;-82
2023/01/29 06:08:05;;;;;;;36.28;22.23;;;;;;;-0.32;89.55;102899.88;4997059;28;20186;-82
2023/01/29 06:10:30;;;;;;;37.67;21.52;;;;;;;-0.32;89.55;102898.94;5012746;28;20057;-80
2023/01/29 06:12:56;;;;;;;36.35;20.58;;;;;;;-0.35;89.88;102902.28;5011396;28;20073;-80
2023/01/29 06:15:23;;;;;;;35.95;21.70;;;;;;;-0.38;89.57;102891.69;4991695;28;20087;-81
2023/01/29 06:17:49;;;;;;;35.70;21.83;;;;;;;-0.33;89.68;102911.06;5006531;28;20060;-81
2023/01/29 06:20:14;;;;;;;33.80;18.92;;;;;;;-0.29;89.59;102917.38;4978137;28;20110;-81
2023/01/29 06:22:40;;;;;;;35.78;21.40;;;;;;;-0.25;89.58;102917.63;4994940;28;20052;-81
2023/01/29 06:25:06;;;;;;;33.47;20.35;;;;;;;-0.27;89.64;102906.22;5006736;28;20122;-81
2023/01/29 06:27:31;;;;;;;36.92;22.35;;;;;;;-0.23;89.46;102899.47;5018380;28;20033;-81
2023/01/29 06:29:57;;;;;;;41.53;22.60;;;;;;;-0.25;89.42;102875.97;5006946;28;20049;-81
2023/01/29 06:32:22;;;;;;;38.10;23.02;;;;;;;-0.24;89.72;102863.84;4997079;28;20038;-81
2023/01/29 06:34:48;;;;;;;39.70;21.00;;;;;;;-0.24;89.47;102864.72;4985069;28;20112;-81
2023/01/29 06:37:13;;;;;;;38.75;22.48;;;;;;;-0.20;89.48;102860.56;4994342;28;20069;-81
2023/01/29 06:39:39;;;;;;;38.58;23.42;;;;;;;-0.21;89.46;102871.81;4993844;28;20049;-81
2023/01/29 06:42:04;;;;;;;37.22;21.30;;;;;;;-0.19;89.59;102874.50;5008218;28;20029;-81
2023/01/29 06:44:30;;;;;;;33.33;20.52;;;;;;;-0.17;89.23;102876.38;5004463;28;20412;-81
2023/01/29 06:46:55;;;;;;;30.05;17.05;;;;;;;-0.17;89.58;102868.56;5008860;28;20042;-81
2023/01/29 06:49:21;;;;;;;38.22;22.73;;;;;;;-0.16;89.44;102872.06;5001458;28;20114;-81
2023/01/29 06:51:49;;;;;;;39.63;24.10;;;;;;;-0.14;89.36;102873.94;5004396;28;20030;-81
2023/01/29 06:54:14;;;;;;;39.65;23.63;;;;;;;-0.13;89.33;102877.44;5009030;28;20042;-81
2023/01/29 06:56:39;;;;;;;35.47;20.38;;;;;;;-0.15;89.26;102872.13;5031912;28;20048;-80
2023/01/29 06:59:05;;;;;;;33.80;21.75;;;;;;;-0.13;89.41;102874.81;4992191;28;20112;-81
2023/01/29 07:01:31;;;;;;;38.72;21.83;;;;;;;-0.18;88.98;102850.25;4997700;28;20037;-81
2023/01/29 07:03:56;;;;;;;32.17;19.45;;;;;;;-0.15;89.63;102853.91;5002744;28;20038;-81
2023/01/29 07:06:28;;;;;;;35.58;20.13;;;;;;;-0.15;89.59;102859.09;5010020;28;20033;-80
2023/01/29 07:08:54;;;;;;;38.63;21.63;;;;;;;-0.12;89.75;102861.91;5002822;28;20071;-80
2023/01/29 07:11:20;;;;;;;38.75;22.50;;;;;;;-0.12;89.50;102861.00;5013181;28;20034;-80
2023/01/29 07:13:45;;;;;;;40.88;24.67;;;;;;;-0.13;89.55;102875.72;5012028;28;20543;-81
2023/01/29 07:16:11;;;;;;;40.17;23.65;;;;;;;-0.11;89.43;102871.50;5025319;28;20042;-81
2023/01/29 07:18:36;;;;;;;42.50;23.85;;;;;;;-0.17;89.94;102862.44;5023079;28;20045;-81
2023/01/29 07:21:05;;;;;;;37.35;23.17;;;;;;;-0.12;89.76;102874.03;5006414;28;20068;-80
2023/01/29 07:23:31;;;;;;;39.22;22.25;;;;;;;-0.09;89.49;102868.97;5007231;28;20022;-81
2023/01/29 07:26:03;;;;;;;30.48;19.48;;;;;;;-0.10;89.68;102869.78;5004577;28;20034;-80
2023/01/29 07:28:28;;;;;;;35.13;21.35;;;;;;;-0.04;88.98;102872.72;4993856;28;20115;-81
2023/01/29 07:30:56;;;;;;;39.45;24.25;;;;;;;-0.03;89.17;102864.09;5012348;28;20521;-80
2023/01/29 07:33:21;;;;;;;41.47;21.10;;;;;;;-0.05;89.19;102858.81;5011563;28;20038;-81
2023/01/29 07:35:46;;;;;;;33.67;19.38;;;;;;;0.01;88.92;102865.16;5011142;28;20056;-81
2023/01/29 07:38:12;;;;;;;40.40;22.35;;;;;;;-0.03;89.15;102861.50;5010825;28;20112;-80
2023/01/29 07:40:38;;;;;;;33.95;20.85;;;;;;;-0.02;88.94;102860.69;5013608;28;20030;-81
2023/01/29 07:43:06;;;;;;;37.65;22.85;;;;;;;-0.01;89.54;102862.47;5025104;28;20065;-80
2023/01/29 07:45:35;;;;;;;35.45;21.40;;;;;;;-0.01;89.32;102860.75;4997192;28;20038;-81
2023/01/29 07:48:04;;;;;;;36.08;20.58;;;;;;;0.01;88.67;102873.88;4996114;28;20034;-81
2023/01/29 07:50:31;;;;;;;41.83;21.58;;;;;;;0.03;88.88;102872.25;4997107;28;20042;-80
2023/01/29 07:52:57;;;;;;;38.03;22.30;;;;;;;0.04;89.08;102870.53;4997169;28;20118;-80
2023/01/29 07:55:23;;;;;;;36.55;22.73;;;;;;;0.03;89.05;102867.03;4998064;28;20508;-81
2023/01/29 07:57:56;;;;;;;34.72;21.40;;;;;;;0.05;88.82;102859.28;4994312;28;20485;-81
2023/01/29 08:00:22;;;;;;;39.10;23.55;;;;;;;-0.01;88.66;102845.13;5027365;28;20042;-81
2023/01/29 08:02:47;;;;;;;38.20;23.02;;;;;;;0.07;88.82;102860.28;5006446;28;20138;-81
2023/01/29 08:05:13;;;;;;;37.67;23.20;;;;;;;0.08;88.84;102862.09;5029785;28;20038;-81
2023/01/29 08:07:39;;;;;;;37.95;22.15;;;;;;;0.10;88.76;102857.81;5015642;28;20116;-81
2023/01/29 08:10:04;;;;;;;33.97;19.95;;;;;;;0.12;88.79;102866.63;4994063;28;20061;-80
2023/01/29 08:12:30;;;;;;;37.60;21.38;;;;;;;0.13;88.84;102869.31;4978031;28;20077;-80
2023/01/29 08:14:55;;;;;;;37.95;20.80;;;;;;;0.13;88.39;102861.50;5007220;28;20045;-81
2023/01/29 08:17:21;;;;;;;38.65;21.77;;;;;;;0.10;88.55;102855.22;5031755;28;20049;-81
2023/01/29 08:19:46;;;;;;;34.08;20.30;;;;;;;0.15;88.45;102862.50;5013261;28;20133;-81
2023/01/29 08:22:14;;;;;;;35.35;20.40;;;;;;;0.16;88.40;102850.34;5009439;28;20114;-81
2023/01/29 08:24:39;;;;;;;33.25;19.77;;;;;;;0.17;88.08;102847.84;5013638;28;20036;-81
2023/01/29 08:27:05;;;;;;;31.58;18.92;;;;;;;0.18;87.90;102839.19;5014917;28;20125;-81
2023/01/29 08:29:30;;;;;;;35.10;21.17;;;;;;;0.13;88.07;102838.06;5016020;28;20033;-81
2023/01/29 08:31:59;;;;;;;33.88;19.73;;;;;;;0.18;87.78;102827.88;5014944;28;20465;-81
2023/01/29 08:34:25;;;;;;;34.42;21.08;;;;;;;0.18;88.21;102825.28;5016613;28;20368;-81
2023/01/29 08:36:52;;;;;;;35.70;21.38;;;;;;;0.17;88.20;102815.66;5014689;28;20144;-81
2023/01/29 08:39:18;;;;;;;32.58;19.60;;;;;;;0.17;88.54;102813.97;5017570;28;20030;-81
2023/01/29 08:41:43;;;;;;;33.03;19.85;;;;;;;0.20;88.01;102816.72;4992575;28;20048;-81
2023/01/29 08:44:11;;;;;;;35.67;20.90;;;;;;;0.15;88.46;102802.56;5018735;28;20076;-82
2023/01/29 08:46:39;;;;;;;31.58;19.58;;;;;;;0.17;87.95;102802.63;5003828;28;20061;-82
2023/01/29 08:49:06;;;;;;;34.17;20.75;;;;;;;0.16;88.27;102812.16;4999836;28;21020;-81
2023/01/29 08:51:31;;;;;;;30.30;18.13;;;;;;;0.24;87.90;102824.69;5018534;28;20064;-81
2023/01/29 08:53:58;;;;;;;30.98;18.13;;;;;;;0.27;87.82;102827.44;5018491;28;20032;-82
2023/01/29 08:56:23;;;;;;;26.13;15.85;;;;;;;0.33;86.81;102822.56;5019195;28;20125;-81
2023/01/29 08:58:49;;;;;;;34.53;19.23;;;;;;;0.33;87.36;102810.44;5018508;28;20045;-81
2023/01/29 09:01:14;;;;;;;35.20;21.20;;;;;;;0.36;86.62;102812.31;5018942;28;20021;-81
2023/01/29 09:03:42;;;;;;;30.85;19.17;;;;;;;0.41;86.56;102829.97;5018543;28;20060;-81
2023/01/29 09:06:12;;;;;;;30.77;19.88;;;;;;;0.38;86.19;102822.00;4989929;28;20030;-81
2023/01/29 09:08:38;;;;;;;30.90;19.77;;;;;;;0.38;86.02;102814.16;5023464;28;20116;-82
2023/01/29 09:11:04;;;;;;;33.03;18.27;;;;;;;0.56;85.61;102816.81;5024337;28;20085;-81
2023/01/29 09:13:30;;;;;;;33.67;19.77;;;;;;;0.56;85.46;102811.59;5022589;28;20026;-80
2023/01/29 09:16:00;;;;;;;42.53;17.80;;;;;;;0.57;85.13;102808.19;5034994;28;20036;-79
2023/01/29 09:18:27;;;;;;;29.88;17.95;;;;;;;0.56;85.63;102802.88;5014199;28;20046;-79
2023/01/29 09:20:52;;;;;;;28.83;16.70;;;;;;;0.63;85.24;102808.47;5014934;28;20052;-79
2023/01/29 09:23:18;;;;;;;27.92;17.45;;;;;;;0.60;84.86;102807.44;5015826;28;20460;-79
2023/01/29 09:25:44;;;;;;;32.72;21.30;;;;;;;0.59;84.94;102803.97;5015289;28;20473;-79
2023/01/29 09:28:09;;;;;;;33.28;19.90;;;;;;;0.65;84.60;102800.75;5020052;28;20382;-79
2023/01/29 09:30:36;;;;;;;26.05;15.30;;;;;;;0.70;84.76;102804.47;5020217;28;20823;-79
2023/01/29 09:33:06;;;;;;;29.90;18.60;;;;;;;0.66;84.45;102792.09;5015595;28;20037;-79
2023/01/29 09:35:33;;;;;;;25.48;14.95;;;;;;;0.79;83.92;102797.13;5016075;28;20065;-79
2023/01/29 09:37:59;;;;;;;29.27;17.45;;;;;;;0.73;84.08;102796.81;5019960;28;20038;-78
2023/01/29 09:40:50;;;;;;;29.45;17.48;;;;;;;0.78;84.22;102804.84;5017887;28;20025;-79
2023/01/29 09:43:20;;;;;;;29.42;19.88;;;;;;;0.81;83.39;102800.69;5017189;28;20096;-79
2023/01/29 09:46:13;;;;;;;25.77;16.30;;;;;;;0.90;82.92;102804.56;5015141;28;20038;-79
2023/01/29 09:48:40;;;;;;;23.55;15.02;;;;;;;0.83;82.72;102803.38;5017473;28;20357;-80
2023/01/29 09:51:18;;;;;;;28.63;16.88;;;;;;;0.82;83.35;102810.31;5018123;28;20504;-79
2023/01/29 09:54:04;;;;;;;28.15;18.08;;;;;;;0.84;83.06;102803.47;5018200;28;20038;-79
2023/01/29 09:56:30;;;;;;;25.13;15.48;;;;;;;0.86;83.81;102809.63;5014983;28;20128;-79
2023/01/29 09:58:58;;;;;;;28.73;16.60;;;;;;;0.91;83.43;102814.19;5017309;28;20407;-79
2023/01/29 10:01:23;;;;;;;30.70;17.42;;;;;;;0.94;83.33;102803.88;5017173;28;20489;-79
2023/01/29 10:04:40;;;;;;;27.58;17.55;;;;;;;0.88;82.90;102794.06;5020035;28;20053;-79
2023/01/29 10:07:24;;;;;;;23.90;14.02;;;;;;;0.96;82.93;102802.25;5006315;28;20041;-79
2023/01/29 10:10:13;;;;;;;30.25;19.02;;;;;;;0.92;82.46;102806.44;5019351;28;20029;-80
2023/01/29 10:12:48;;;;;;;30.02;16.95;;;;;;;1.00;82.79;102809.44;5019344;28;20353;-79
2023/01/29 10:15:44;;;;;;;30.10;15.95;;;;;;;1.05;82.84;102803.59;5019001;28;20096;-79
2023/01/29 10:18:27;;;;;;;28.17;17.45;;;;;;;1.07;82.31;102801.06;5020863;28;20548;-79
2023/01/29 10:21:40;;;;;;;25.65;15.50;;;;;;;1.09;82.71;102799.44;5016576;28;20037;-80
2023/01/29 10:24:35;;;;;;;25.95;16.23;;;;;;;1.08;82.69;102795.03;4984304;28;20046;-79
2023/01/29 10:27:02;;;;;;;26.15;15.60;;;;;;;1.11;82.59;102796.88;5018398;28;20045;-79
2023/01/29 10:29:30;;;;;;;23.50;15.18;;;;;;;1.08;82.37;102793.31;5015953;28;20043;-80
2023/01/29 10:32:03;;;;;;;24.13;15.60;;;;;;;1.14;81.75;102802.25;5017061;28;20492;-79
2023/01/29 10:34:56;;;;;;;24.95;14.75;;;;;;;1.20;82.70;102805.16;5039347;28;20519;-80
2023/01/29 10:37:29;;;;;;;29.20;16.35;;;;;;;1.18;81.98;102792.03;5018235;28;20519;-79
2023/01/29 10:39:58;;;;;;;22.15;14.27;;;;;;;1.27;82.14;102795.09;5017300;28;20037;-80
2023/01/29 10:42:37;;;;;;;25.45;15.10;;;;;;;1.23;81.47;102787.03;5018775;28;20022;-80
2023/01/29 10:45:02;;;;;;;30.35;17.40;;;;;;;1.21;81.73;102792.22;5018501;28;20037;-79
2023/01/29 10:47:56;;;;;;;22.13;12.88;;;;;;;1.27;82.03;102788.97;5017784;28;20064;-79
2023/01/29 10:51:05;;;;;;;24.52;14.55;;;;;;;1.37;81.52;102785.97;5037181;28;20037;-79
2023/01/29 10:53:45;;;;;;;25.50;14.70;;;;;;;1.35;81.74;102785.00;4979876;28;20121;-79
2023/01/29 10:56:25;;;;;;;24.37;14.47;;;;;;;1.37;81.84;102772.94;5000974;28;20105;-79
2023/01/29 10:58:55;;;;;;;27.33;16.42;;;;;;;1.40;80.48;102766.94;5006050;28;20045;-79
2023/01/29 11:01:21;;;;;;;28.30;15.20;;;;;;;1.43;81.31;102759.25;5018340;28;20044;-79
2023/01/29 11:03:57;;;;;;;21.55;14.95;;;;;;;1.47;80.89;102750.75;5018736;28;20029;-80
2023/01/29 11:06:28;;;;;;;23.30;14.05;;;;;;;1.55;81.30;102749.38;5016996;28;20488;-79
2023/01/29 11:09:07;;;;;;;23.73;14.52;;;;;;;1.54;80.69;102747.59;5017545;28;20488;-79
2023/01/29 11:11:49;;;;;;;22.80;13.45;;;;;;;1.66;80.53;102735.09;5020026;28;20168;-78
2023/01/29 11:14:37;;;;;;;24.67;15.77;;;;;;;1.61;80.24;102726.16;5016555;28;20026;-78
2023/01/29 11:17:03;;;;;;;25.27;14.45;;;;;;;1.65;80.13;102719.34;5021640;28;20036;-79
2023/01/29 11:19:44;;;;;;;25.55;14.15;;;;;;;1.71;80.12;102711.81;5004041;28;20033;-79
2023/01/29 11:22:15;;;;;;;26.45;16.77;;;;;;;1.80;78.53;102714.81;5018206;28;20109;-79
2023/01/29 11:24:40;;;;;;;27.15;14.32;;;;;;;1.72;79.22;102700.53;5014497;28;20042;-80
2023/01/29 11:27:22;;;;;;;28.42;14.63;;;;;;;1.77;79.67;102699.00;5013863;28;20508;-79
2023/01/29 11:29:48;;;;;;;28.02;14.73;;;;;;;1.75;79.64;102692.81;5036852;28;20504;-79
2023/01/29 11:32:20;;;;;;;25.40;15.27;;;;;;;1.79;79.46;102693.84;5003409;28;20125;-79
2023/01/29 11:35:03;;;;;;;25.33;15.43;;;;;;;1.82;78.98;102686.16;5015964;28;20030;-78
2023/01/29 11:37:36;;;;;;;27.70;14.45;;;;;;;1.85;79.07;102686.28;5014378;28;20049;-79
2023/01/29 11:40:22;;;;;;;22.85;14.82;;;;;;;1.91;78.84;102676.09;5015399;28;20087;-79
2023/01/29 11:42:50;;;;;;;20.50;11.98;;;;;;;1.91;78.12;102671.75;5010867;28;20055;-79
2023/01/29 11:45:26;;;;;;;23.98;13.82;;;;;;;1.91;79.23;102681.31;5013385;28;20034;-78
2023/01/29 11:47:54;;;;;;;21.98;13.10;;;;;;;1.91;79.34;102679.59;5012975;28;20049;-78
2023/01/29 11:50:33;;;;;;;18.90;12.52;;;;;;;1.91;78.16;102661.31;5016195;28;20014;-79
2023/01/29 11:52:59;;;;;;;20.83;12.35;;;;;;;1.93;78.51;102662.28;5021264;28;20065;-78
2023/01/29 11:55:31;;;;;;;22.33;14.55;;;;;;;1.94;77.80;102648.38;5019630;28;20107;-78
2023/01/29 11:58:05;;;;;;;21.73;14.07;;;;;;;2.00;78.05;102646.84;5041447;28;20389;-79
2023/01/29 12:00:34;;;;;;;21.48;12.63;;;;;;;2.03;78.22;102641.75;5042015;28;20048;-79
2023/01/29 12:03:09;;;;;;;25.50;15.23;;;;;;;2.06;78.45;102640.16;5021820;28;20393;-78